createdAt,value
2018-01-05T00:00:29.299Z,12.67
2018-01-05T00:02:56.706Z,16.43
2018-01-05T00:05:24.102Z,9.67
2018-01-05T00:07:51.480Z,9.03
2018-01-05T00:10:18.910Z,8.80
2018-01-05T00:12:46.314Z,6.33
2018-01-05T00:15:13.683Z,9.23
2018-01-05T00:17:41.067Z,22.33
2018-01-05T00:20:08.464Z,19.67
2018-01-05T00:22:35.842Z,9.63
2018-01-05T00:25:03.248Z,10.07
2018-01-05T00:27:30.617Z,5.03
2018-01-05T00:29:58.015Z,12.93
2018-01-05T00:32:25.411Z,7.27
2018-01-05T00:34:52.803Z,8.30
2018-01-05T00:37:20.192Z,5.53
2018-01-05T00:39:47.591Z,10.07
2018-01-05T00:42:14.975Z,5.27
2018-01-05T00:44:42.399Z,1.90
2018-01-05T00:47:09.788Z,5.33
2018-01-05T00:49:37.271Z,7.13
2018-01-05T00:52:04.659Z,5.90
2018-01-05T00:54:32.044Z,9.43
2018-01-05T00:56:59.426Z,3.87
2018-01-05T00:59:26.813Z,2.87
2018-01-05T01:01:54.203Z,6.00
2018-01-05T01:04:21.591Z,10.57
2018-01-05T01:06:49.017Z,8.10
2018-01-05T01:09:16.417Z,6.43
2018-01-05T01:11:43.814Z,10.53
2018-01-05T01:14:11.205Z,12.57
2018-01-05T01:16:38.594Z,7.43
2018-01-05T01:19:05.982Z,8.43
2018-01-05T01:21:33.369Z,6.03
2018-01-05T01:24:00.775Z,6.50
2018-01-05T01:26:28.171Z,6.07
2018-01-05T01:28:55.558Z,2.23
2018-01-05T01:31:22.947Z,9.00
2018-01-05T01:33:50.338Z,9.60
2018-01-05T01:36:17.743Z,3.47
2018-01-05T01:38:45.132Z,19.70
2018-01-05T01:41:12.558Z,6.83
2018-01-05T01:43:39.994Z,3.47
2018-01-05T01:46:07.382Z,6.47
2018-01-05T01:48:34.777Z,3.60
2018-01-05T01:51:02.559Z,5.63
2018-01-05T01:53:29.946Z,5.17
2018-01-05T01:55:57.339Z,6.33
2018-01-05T01:58:24.722Z,6.53
2018-01-05T02:00:52.115Z,3.73
2018-01-05T02:03:19.507Z,5.57
2018-01-05T02:05:46.888Z,6.50
2018-01-05T02:08:14.301Z,4.70
2018-01-05T02:10:41.669Z,6.40
2018-01-05T02:13:09.057Z,10.37
2018-01-05T02:15:36.439Z,5.50
2018-01-05T02:18:03.829Z,3.50
2018-01-05T02:20:31.214Z,8.83
2018-01-05T02:22:58.624Z,7.70
2018-01-05T02:25:26.021Z,7.67
2018-01-05T02:27:53.417Z,3.03
2018-01-05T02:30:20.802Z,1.60
2018-01-05T02:32:48.202Z,7.00
2018-01-05T02:35:15.579Z,8.07
2018-01-05T02:37:42.989Z,4.90
2018-01-05T02:40:10.466Z,7.10
2018-01-05T02:42:37.858Z,11.20
2018-01-05T02:45:05.251Z,9.50
2018-01-05T02:47:32.642Z,7.00
2018-01-05T02:50:00.046Z,3.60
2018-01-05T02:52:27.427Z,5.40
2018-01-05T02:54:54.811Z,7.23
2018-01-05T02:57:22.199Z,8.57
2018-01-05T02:59:49.598Z,15.43
2018-01-05T03:02:16.979Z,6.13
2018-01-05T03:04:44.378Z,7.47
2018-01-05T03:07:11.758Z,6.27
2018-01-05T03:09:39.150Z,9.93
2018-01-05T03:12:06.533Z,8.10
2018-01-05T03:14:33.957Z,7.33
2018-01-05T03:17:01.330Z,7.10
2018-01-05T03:19:28.733Z,7.30
2018-01-05T03:21:56.118Z,8.80
2018-01-05T03:24:23.563Z,8.50
2018-01-05T03:26:50.898Z,10.70
2018-01-05T03:29:18.287Z,6.27
2018-01-05T03:31:45.677Z,10.67
2018-01-05T03:34:13.077Z,17.63
2018-01-05T03:36:40.458Z,3.43
2018-01-05T03:39:07.871Z,10.03
2018-01-05T03:41:35.229Z,6.17
2018-01-05T03:44:02.622Z,9.70
2018-01-05T03:46:30.005Z,4.27
2018-01-05T03:48:57.412Z,9.47
2018-01-05T03:51:24.788Z,9.47
2018-01-05T03:53:52.159Z,6.93
2018-01-05T03:56:19.555Z,8.77
2018-01-05T03:58:47.017Z,6.40
2018-01-05T04:01:14.415Z,2.53
2018-01-05T04:03:41.800Z,11.20
2018-01-05T04:06:09.199Z,3.90
2018-01-05T04:08:36.655Z,4.90
2018-01-05T04:11:04.036Z,4.97
2018-01-05T04:13:31.420Z,12.83
2018-01-05T04:15:58.901Z,9.07
2018-01-05T04:18:26.335Z,5.03
2018-01-05T04:20:53.687Z,8.73
2018-01-05T04:23:21.074Z,8.53
2018-01-05T04:25:48.469Z,10.37
2018-01-05T04:28:15.867Z,9.80
2018-01-05T04:30:43.250Z,8.33
2018-01-05T04:33:11.248Z,5.30
2018-01-05T04:35:38.655Z,5.17
2018-01-05T04:38:06.055Z,11.53
2018-01-05T04:40:33.438Z,11.37
2018-01-05T04:43:00.831Z,7.23
2018-01-05T04:45:28.246Z,6.13
2018-01-05T04:47:55.739Z,9.27
2018-01-05T04:50:23.118Z,3.53
2018-01-05T04:52:50.511Z,4.67
2018-01-05T04:55:17.892Z,8.50
2018-01-05T04:57:45.363Z,6.77
2018-01-05T05:00:12.855Z,10.23
2018-01-05T05:02:40.247Z,10.23
2018-01-05T05:05:07.631Z,6.03
2018-01-05T05:07:35.019Z,7.10
2018-01-05T05:10:02.401Z,9.63
2018-01-05T05:12:29.798Z,11.67
2018-01-05T05:14:57.178Z,2.63
2018-01-05T05:17:24.574Z,8.80
2018-01-05T05:19:51.954Z,7.60
2018-01-05T05:22:19.355Z,12.30
2018-01-05T05:24:46.742Z,4.40
2018-01-05T05:27:14.122Z,5.80
2018-01-05T05:29:41.615Z,4.47
2018-01-05T05:32:09.008Z,4.67
2018-01-05T05:34:36.424Z,7.87
2018-01-05T05:37:03.810Z,7.10
2018-01-05T05:39:31.202Z,10.10
2018-01-05T05:41:58.687Z,11.60
2018-01-05T05:44:27.073Z,10.67
2018-01-05T05:46:54.466Z,10.90
2018-01-05T05:49:21.854Z,6.53
2018-01-05T05:51:49.373Z,4.97
2018-01-05T05:54:16.790Z,7.47
2018-01-05T05:56:44.175Z,9.70
2018-01-05T05:59:11.583Z,4.80
2018-01-05T06:01:38.965Z,7.30
2018-01-05T06:04:06.357Z,12.87
2018-01-05T06:06:33.734Z,6.10
2018-01-05T06:09:01.140Z,4.53
2018-01-05T06:11:28.518Z,14.17
2018-01-05T06:13:55.903Z,5.10
2018-01-05T06:16:23.286Z,9.13
2018-01-05T06:18:50.675Z,6.30
2018-01-05T06:21:18.062Z,7.20
2018-01-05T06:23:45.449Z,5.03
2018-01-05T06:26:12.834Z,4.17
2018-01-05T06:28:40.223Z,14.27
2018-01-05T06:31:07.720Z,6.82
2018-01-05T06:33:35.098Z,5.10
2018-01-05T06:36:02.489Z,7.23
2018-01-05T06:38:29.871Z,9.70
2018-01-05T06:40:57.263Z,4.93
2018-01-05T06:43:24.663Z,3.20
2018-01-05T06:45:52.117Z,2.40
2018-01-05T06:48:19.619Z,5.43
2018-01-05T06:50:47.002Z,8.50
2018-01-05T06:53:14.383Z,9.03
2018-01-05T06:55:41.771Z,2.93
2018-01-05T06:58:09.149Z,13.30
2018-01-05T07:00:36.574Z,6.23
2018-01-05T07:03:04.188Z,5.80
2018-01-05T07:05:31.587Z,5.00
2018-01-05T07:07:59.056Z,3.73
2018-01-05T07:10:27.235Z,9.40
2018-01-05T07:12:54.623Z,8.70
2018-01-05T07:15:22.007Z,12.93
2018-01-05T07:17:49.494Z,5.70
2018-01-05T07:20:16.866Z,6.10
2018-01-05T07:22:44.269Z,12.00
2018-01-05T07:25:11.755Z,4.07
2018-01-05T07:27:39.142Z,3.53
2018-01-05T07:30:06.528Z,8.33
2018-01-05T07:32:33.915Z,4.93
2018-01-05T07:35:01.294Z,3.50
2018-01-05T07:37:28.755Z,8.73
2018-01-05T07:39:56.186Z,8.80
2018-01-05T07:42:23.584Z,1.93
2018-01-05T07:44:50.958Z,5.57
2018-01-05T07:47:18.351Z,8.97
2018-01-05T07:49:45.740Z,8.27
2018-01-05T07:52:13.134Z,11.57
2018-01-05T07:54:40.574Z,7.47
2018-01-05T07:57:08.003Z,4.43
2018-01-05T07:59:35.387Z,9.77
2018-01-05T08:02:02.767Z,12.00
2018-01-05T08:04:30.163Z,8.60
2018-01-05T08:06:57.542Z,3.43
2018-01-05T08:09:24.940Z,7.33
2018-01-05T08:11:53.535Z,5.43
2018-01-05T08:14:20.915Z,16.27
2018-01-05T08:16:48.328Z,7.33
2018-01-05T08:19:15.713Z,8.13
2018-01-05T08:21:43.095Z,10.00
2018-01-05T08:24:10.486Z,9.93
2018-01-05T08:26:37.867Z,2.47
2018-01-05T08:29:05.251Z,4.20
2018-01-05T08:31:32.642Z,8.10
2018-01-05T08:34:00.043Z,2.00
2018-01-05T08:36:27.419Z,2.10
2018-01-05T08:38:54.908Z,3.37
2018-01-05T08:41:22.289Z,8.70
2018-01-05T08:43:49.683Z,6.13
2018-01-05T08:46:17.072Z,7.60
2018-01-05T08:48:44.457Z,5.87
2018-01-05T08:51:11.839Z,2.33
2018-01-05T08:53:39.234Z,4.47
2018-01-05T08:56:06.619Z,3.57
2018-01-05T08:58:34.047Z,2.43
2018-01-05T09:01:01.467Z,2.40
2018-01-05T09:03:28.851Z,3.00
2018-01-05T09:05:56.248Z,2.50
2018-01-05T09:08:23.631Z,5.70
2018-01-05T09:10:51.027Z,3.37
2018-01-05T09:13:18.704Z,2.17
2018-01-05T09:15:46.119Z,4.33
2018-01-05T09:18:13.512Z,3.90
2018-01-05T09:20:40.898Z,1.53
2018-01-05T09:23:08.318Z,5.03
2018-01-05T09:25:35.706Z,8.90
2018-01-05T09:28:03.079Z,3.60
2018-01-05T09:30:30.572Z,2.40
2018-01-05T09:32:57.992Z,7.60
2018-01-05T09:35:25.396Z,2.93
2018-01-05T09:37:52.843Z,2.43
2018-01-05T09:40:20.231Z,4.57
2018-01-05T09:42:47.634Z,5.40
2018-01-05T09:45:15.098Z,2.00
2018-01-05T09:47:42.558Z,8.93
2018-01-05T09:50:10.019Z,4.47
2018-01-05T09:52:37.406Z,4.10
2018-01-05T09:55:04.779Z,2.67
2018-01-05T09:57:32.166Z,4.60
2018-01-05T09:59:59.576Z,7.23
2018-01-05T10:02:26.965Z,1.70
2018-01-05T10:04:54.455Z,9.27
2018-01-05T10:07:21.847Z,6.00
2018-01-05T10:09:49.223Z,4.70
2018-01-05T10:12:16.614Z,3.00
2018-01-05T10:14:44.001Z,1.67
2018-01-05T10:17:11.391Z,1.60
2018-01-05T10:19:38.767Z,2.23
2018-01-05T10:22:06.173Z,8.10
2018-01-05T10:24:33.552Z,7.67
2018-01-05T10:27:01.048Z,11.63
2018-01-05T10:29:28.435Z,4.40
2018-01-05T10:31:55.827Z,15.43
2018-01-05T10:34:23.310Z,3.50
2018-01-05T10:36:50.793Z,7.40
2018-01-05T10:39:18.193Z,5.03
2018-01-05T10:41:45.684Z,4.47
2018-01-05T10:44:13.074Z,3.63
2018-01-05T10:46:40.471Z,8.93
2018-01-05T10:49:07.857Z,8.03
2018-01-05T10:51:35.248Z,5.30
2018-01-05T10:54:02.638Z,2.40
2018-01-05T10:56:30.053Z,11.00
2018-01-05T10:58:57.466Z,5.87
2018-01-05T11:01:24.858Z,1.10
2018-01-05T11:03:52.269Z,2.03
2018-01-05T11:06:19.664Z,14.00
2018-01-05T11:08:47.091Z,6.13
2018-01-05T11:11:14.470Z,9.00
2018-01-05T11:13:41.851Z,6.47
2018-01-05T11:16:09.238Z,4.27
2018-01-05T11:18:36.626Z,3.80
2018-01-05T11:21:04.007Z,7.40
2018-01-05T11:23:31.404Z,7.30
2018-01-05T11:25:58.788Z,9.30
2018-01-05T11:28:26.172Z,6.80
2018-01-05T11:30:53.561Z,9.77
2018-01-05T11:33:20.959Z,5.40
2018-01-05T11:35:48.347Z,9.40
2018-01-05T11:38:15.745Z,3.43
2018-01-05T11:40:43.126Z,4.07
2018-01-05T11:43:10.522Z,4.40
2018-01-05T11:45:37.919Z,11.03
2018-01-05T11:48:05.333Z,7.87
2018-01-05T11:50:32.734Z,5.50
2018-01-05T11:53:00.094Z,4.70
2018-01-05T11:55:27.505Z,6.23
2018-01-05T11:57:54.868Z,4.50
2018-01-05T12:00:22.257Z,7.30
2018-01-05T12:02:49.634Z,6.43
2018-01-05T12:05:17.035Z,2.23
2018-01-05T12:07:44.541Z,12.33
2018-01-05T12:10:12.397Z,9.87
2018-01-05T12:12:39.772Z,9.90
2018-01-05T12:15:07.167Z,3.33
2018-01-05T12:17:34.558Z,4.10
2018-01-05T12:20:02.000Z,12.63
2018-01-05T12:22:29.459Z,6.50
2018-01-05T12:24:56.851Z,5.37
2018-01-05T12:27:24.287Z,9.70
2018-01-05T12:29:51.691Z,8.03
2018-01-05T12:32:19.150Z,4.60
2018-01-05T12:34:46.530Z,5.10
2018-01-05T12:37:13.923Z,12.23
2018-01-05T12:39:41.326Z,5.53
2018-01-05T12:42:08.713Z,6.07
2018-01-05T12:44:36.091Z,4.63
2018-01-05T12:47:03.490Z,13.90
2018-01-05T12:49:30.870Z,5.90
2018-01-05T12:51:58.258Z,6.33
2018-01-05T12:54:25.646Z,5.73
2018-01-05T12:56:53.055Z,7.70
2018-01-05T12:59:20.444Z,12.67
2018-01-05T13:01:47.829Z,4.83
2018-01-05T13:04:15.206Z,8.30
2018-01-05T13:06:42.599Z,8.13
2018-01-05T13:09:09.989Z,7.20
2018-01-05T13:11:37.374Z,8.43
2018-01-05T13:14:04.778Z,4.33
2018-01-05T13:16:32.274Z,12.60
2018-01-05T13:18:59.714Z,7.87
2018-01-05T13:21:27.107Z,7.83
2018-01-05T13:23:54.503Z,11.37
2018-01-05T13:26:21.896Z,8.70
2018-01-05T13:28:49.283Z,11.17
2018-01-05T13:31:16.712Z,13.00
2018-01-05T13:33:44.090Z,5.13
2018-01-05T13:36:11.529Z,4.50
2018-01-05T13:38:38.902Z,17.40
2018-01-05T13:41:06.286Z,10.80
2018-01-05T13:43:33.678Z,7.20
2018-01-05T13:46:01.088Z,8.03
2018-01-05T13:48:28.476Z,6.10
2018-01-05T13:50:55.870Z,6.63
2018-01-05T13:53:23.267Z,4.50
2018-01-05T13:55:50.672Z,8.80
2018-01-05T13:58:18.063Z,6.73
2018-01-05T14:00:45.455Z,6.57
2018-01-05T14:03:12.834Z,9.43
2018-01-05T14:05:40.219Z,8.80
2018-01-05T14:08:07.612Z,8.00
2018-01-05T14:10:34.989Z,3.90
2018-01-05T14:13:02.392Z,5.83
2018-01-05T14:15:30.219Z,6.20
2018-01-05T14:17:58.574Z,7.30
2018-01-05T14:20:26.006Z,3.73
2018-01-05T14:22:53.336Z,8.30
2018-01-05T14:25:20.715Z,5.90
2018-01-05T14:27:48.106Z,11.57
2018-01-05T14:30:15.493Z,7.30
2018-01-05T14:32:43.118Z,8.53
2018-01-05T14:35:10.566Z,6.73
2018-01-05T14:37:38.975Z,9.80
2018-01-05T14:40:06.351Z,5.63
2018-01-05T14:42:33.771Z,4.73
2018-01-05T14:45:01.159Z,5.10
2018-01-05T14:47:28.538Z,8.97
2018-01-05T14:49:55.926Z,6.00
2018-01-05T14:52:23.314Z,8.13
2018-01-05T14:54:50.712Z,10.93
2018-01-05T14:57:18.204Z,7.67
2018-01-05T14:59:45.605Z,7.63
2018-01-05T15:02:13.038Z,4.53
2018-01-05T15:04:40.438Z,16.43
2018-01-05T15:07:07.824Z,5.90
2018-01-05T15:09:35.225Z,10.00
2018-01-05T15:12:02.597Z,8.77
2018-01-05T15:14:30.113Z,11.27
2018-01-05T15:16:57.503Z,4.87
2018-01-05T15:19:24.896Z,6.53
2018-01-05T15:21:52.352Z,9.23
2018-01-05T15:24:19.836Z,11.43
2018-01-05T15:26:47.227Z,4.90
2018-01-05T15:29:14.622Z,7.10
2018-01-05T15:31:41.998Z,4.87
2018-01-05T15:34:09.393Z,9.93
2018-01-05T15:36:36.786Z,4.60
2018-01-05T15:39:04.180Z,11.17
2018-01-05T15:41:31.581Z,11.27
2018-01-05T15:43:59.061Z,9.53
2018-01-05T15:46:26.468Z,11.83
2018-01-05T15:48:53.838Z,7.10
2018-01-05T15:51:21.319Z,14.07
2018-01-05T15:53:48.711Z,10.07
2018-01-05T15:56:16.217Z,13.30
2018-01-05T15:58:43.598Z,13.80
2018-01-05T16:01:11.034Z,11.83
2018-01-05T16:03:38.414Z,7.70
2018-01-05T16:06:05.825Z,10.20
2018-01-05T16:08:33.207Z,9.30
2018-01-05T16:11:00.624Z,14.87
2018-01-05T16:13:28.122Z,8.20
2018-01-05T16:15:55.523Z,16.03
2018-01-05T16:18:22.907Z,7.43
2018-01-05T16:20:50.310Z,9.30
2018-01-05T16:23:17.699Z,10.10
2018-01-05T16:25:45.078Z,8.50
2018-01-05T16:28:12.491Z,10.03
2018-01-05T16:30:39.903Z,5.97
2018-01-05T16:33:07.370Z,12.20
2018-01-05T16:35:34.750Z,12.20
2018-01-05T16:38:02.150Z,10.97
2018-01-05T16:40:29.538Z,10.53
2018-01-05T16:42:56.934Z,8.83
2018-01-05T16:45:24.327Z,5.67
2018-01-05T16:47:51.773Z,11.33
2018-01-05T16:50:19.150Z,11.50
2018-01-05T16:52:46.613Z,7.20
2018-01-05T16:55:13.996Z,9.20
2018-01-05T16:57:41.402Z,13.57
2018-01-05T17:00:08.774Z,8.30
2018-01-05T17:02:36.159Z,9.27
2018-01-05T17:05:03.538Z,8.97
2018-01-05T17:07:30.938Z,6.70
2018-01-05T17:09:58.334Z,5.10
2018-01-05T17:12:25.719Z,22.07
2018-01-05T17:14:53.110Z,8.53
2018-01-05T17:17:20.498Z,12.30
2018-01-05T17:19:47.899Z,5.80
2018-01-05T17:22:15.271Z,10.50
2018-01-05T17:24:42.682Z,7.17
2018-01-05T17:27:10.122Z,8.07
2018-01-05T17:29:37.528Z,7.03
2018-01-05T17:32:04.992Z,8.70
2018-01-05T17:34:32.447Z,13.13
2018-01-05T17:36:59.833Z,8.27
2018-01-05T17:39:27.253Z,6.33
2018-01-05T17:41:54.719Z,8.87
2018-01-05T17:44:22.110Z,10.67
2018-01-05T17:46:49.496Z,11.40
2018-01-05T17:49:16.886Z,8.33
2018-01-05T17:51:44.282Z,11.27
2018-01-05T17:54:11.706Z,15.00
2018-01-05T17:56:39.085Z,12.93
2018-01-05T17:59:06.476Z,8.13
2018-01-05T18:01:33.859Z,7.40
2018-01-05T18:04:01.256Z,9.50
2018-01-05T18:06:28.642Z,19.93
2018-01-05T18:08:56.047Z,20.10
2018-01-05T18:11:23.535Z,8.10
2018-01-05T18:13:50.924Z,29.17
2018-01-05T18:16:18.323Z,11.77
2018-01-05T18:18:45.711Z,10.30
2018-01-05T18:21:13.134Z,10.37
2018-01-05T18:23:40.531Z,12.93
2018-01-05T18:26:07.922Z,12.90
2018-01-05T18:28:35.314Z,16.77
2018-01-05T18:31:02.853Z,12.40
2018-01-05T18:33:30.287Z,12.70
2018-01-05T18:35:57.698Z,19.30
2018-01-05T18:38:25.098Z,21.70
2018-01-05T18:40:52.501Z,19.77
2018-01-05T18:43:19.906Z,16.90
2018-01-05T18:45:47.299Z,20.00
2018-01-05T18:48:14.686Z,19.27
2018-01-05T18:50:42.180Z,23.57
2018-01-05T18:53:09.590Z,33.23
2018-01-05T18:55:36.999Z,21.17
2018-01-05T18:58:04.402Z,14.80
2018-01-05T19:00:31.794Z,19.30
2018-01-05T19:02:59.252Z,16.70
2018-01-05T19:05:26.639Z,18.97
2018-01-05T19:07:54.030Z,15.83
2018-01-05T19:10:21.435Z,16.20
2018-01-05T19:12:48.881Z,28.10
2018-01-05T19:15:16.290Z,20.17
2018-01-05T19:17:43.811Z,19.60
2018-01-05T19:20:11.222Z,23.67
2018-01-05T19:22:38.614Z,23.80
2018-01-05T19:25:06.019Z,30.87
2018-01-05T19:27:33.486Z,27.97
2018-01-05T19:30:00.893Z,23.73
2018-01-05T19:32:28.292Z,21.00
2018-01-05T19:34:55.846Z,26.73
2018-01-05T19:37:23.248Z,25.57
2018-01-05T19:39:50.635Z,18.93
2018-01-05T19:42:18.067Z,18.67
2018-01-05T19:44:45.467Z,26.13
2018-01-05T19:47:12.951Z,17.30
2018-01-05T19:49:40.342Z,15.60
2018-01-05T19:52:07.727Z,20.73
2018-01-05T19:54:35.223Z,32.67
2018-01-05T19:57:02.639Z,18.87
2018-01-05T19:59:30.130Z,19.87
2018-01-05T20:01:57.527Z,16.40
2018-01-05T20:04:24.923Z,18.53
2018-01-05T20:06:52.330Z,19.80
2018-01-05T20:09:19.738Z,23.93
2018-01-05T20:11:47.159Z,25.60
2018-01-05T20:14:14.550Z,24.17
2018-01-05T20:16:41.946Z,23.47
2018-01-05T20:19:09.363Z,23.70
2018-01-05T20:21:36.780Z,21.07
2018-01-05T20:24:04.175Z,35.97
2018-01-05T20:26:31.578Z,28.90
2018-01-05T20:28:58.983Z,21.67
2018-01-05T20:31:26.395Z,19.80
2018-01-05T20:33:53.950Z,14.20
2018-01-05T20:36:21.334Z,31.23
2018-01-05T20:38:48.719Z,23.37
2018-01-05T20:41:16.143Z,19.77
2018-01-05T20:43:43.547Z,25.33
2018-01-05T20:46:10.959Z,23.60
2018-01-05T20:48:38.351Z,26.70
2018-01-05T20:51:05.877Z,16.40
2018-01-05T20:53:33.235Z,9.90
2018-01-05T20:56:00.657Z,26.10
2018-01-05T20:58:28.038Z,24.23
2018-01-05T21:00:55.453Z,24.83
2018-01-05T21:03:22.941Z,15.63
2018-01-05T21:05:50.327Z,21.67
2018-01-05T21:08:17.726Z,18.77
2018-01-05T21:10:45.203Z,31.93
2018-01-05T21:13:12.593Z,21.10
2018-01-05T21:15:40.003Z,16.80
2018-01-05T21:18:07.398Z,19.70
2018-01-05T21:20:34.829Z,16.43
2018-01-05T21:23:02.195Z,25.30
2018-01-05T21:25:29.611Z,22.03
2018-01-05T21:27:57.086Z,19.97
2018-01-05T21:30:24.541Z,18.80
2018-01-05T21:32:52.034Z,24.47
2018-01-05T21:35:19.374Z,24.97
2018-01-05T21:37:46.778Z,17.73
2018-01-05T21:40:14.166Z,13.40
2018-01-05T21:42:41.564Z,15.80
2018-01-05T21:45:08.967Z,13.17
2018-01-05T21:47:36.371Z,17.93
2018-01-05T21:50:03.775Z,20.93
2018-01-05T21:52:31.173Z,9.87
2018-01-05T21:54:58.559Z,11.50
2018-01-05T21:57:25.962Z,9.30
2018-01-05T21:59:53.338Z,11.53
2018-01-05T22:02:20.742Z,10.13
2018-01-05T22:04:48.118Z,4.60
2018-01-05T22:07:15.506Z,6.53
2018-01-05T22:09:42.906Z,7.67
2018-01-05T22:12:10.290Z,7.00
2018-01-05T22:14:37.672Z,3.77
2018-01-05T22:17:05.051Z,4.93
2018-01-05T22:19:32.442Z,4.40
2018-01-05T22:21:59.890Z,5.13
2018-01-05T22:24:27.351Z,5.80
2018-01-05T22:26:54.745Z,2.27
2018-01-05T22:29:22.165Z,4.70
2018-01-05T22:31:49.550Z,5.83
2018-01-05T22:34:16.934Z,2.60
2018-01-05T22:36:44.436Z,4.93
2018-01-05T22:39:11.822Z,1.77
2018-01-05T22:41:39.203Z,4.63
2018-01-05T22:44:06.601Z,3.53
2018-01-05T22:46:33.994Z,2.40
2018-01-05T22:49:01.394Z,1.00
2018-01-05T22:51:28.774Z,4.77
2018-01-05T22:53:56.314Z,2.90
2018-01-05T22:56:23.731Z,3.60
2018-01-05T22:58:51.139Z,1.87
2018-01-05T23:01:18.527Z,1.70
2018-01-05T23:03:45.941Z,2.17
2018-01-05T23:06:13.311Z,5.57
2018-01-05T23:08:40.757Z,4.63
2018-01-05T23:11:08.198Z,7.03
2018-01-05T23:13:35.658Z,3.03
2018-01-05T23:16:03.053Z,3.60
2018-01-05T23:18:30.432Z,4.77
2018-01-05T23:20:57.831Z,5.23
2018-01-05T23:23:25.224Z,7.37
2018-01-05T23:25:52.620Z,3.00
2018-01-05T23:28:19.998Z,6.60
2018-01-05T23:30:47.396Z,5.83
2018-01-05T23:33:14.798Z,8.80
2018-01-05T23:35:42.216Z,10.53
2018-01-05T23:38:09.591Z,5.40
2018-01-05T23:40:37.007Z,3.63
2018-01-05T23:43:04.384Z,6.27
2018-01-05T23:45:31.774Z,6.67
2018-01-05T23:47:59.154Z,11.63
2018-01-05T23:50:26.564Z,5.67
2018-01-05T23:52:53.955Z,4.67
2018-01-05T23:55:21.373Z,13.20
2018-01-05T23:57:48.744Z,3.10
